createdAt,value
2018-06-29T00:00:21.835Z,16.90
2018-06-29T00:03:19.582Z,16.80
2018-06-29T00:06:17.394Z,16.70
2018-06-29T00:09:15.443Z,16.60
2018-06-29T00:12:13.446Z,16.50
2018-06-29T00:15:11.191Z,16.40
2018-06-29T00:18:09.039Z,16.40
2018-06-29T00:21:06.817Z,16.40
2018-06-29T00:24:04.665Z,16.20
2018-06-29T00:27:02.583Z,16.00
2018-06-29T00:30:00.398Z,15.80
2018-06-29T00:32:58.442Z,15.80
2018-06-29T00:35:56.444Z,15.80
2018-06-29T00:38:54.538Z,15.90
2018-06-29T00:41:52.730Z,16.00
2018-06-29T00:44:50.713Z,16.20
2018-06-29T00:47:48.747Z,16.30
2018-06-29T00:50:46.863Z,16.30
2018-06-29T00:53:44.878Z,16.00
2018-06-29T00:56:42.710Z,16.10
2018-06-29T00:59:40.334Z,16.10
2018-06-29T01:02:38.201Z,16.10
2018-06-29T01:05:35.973Z,16.10
2018-06-29T01:08:34.021Z,16.10
2018-06-29T01:11:31.818Z,16.00
2018-06-29T01:14:29.591Z,16.00
2018-06-29T01:17:27.601Z,16.00
2018-06-29T01:20:25.669Z,15.90
2018-06-29T01:23:23.536Z,15.80
2018-06-29T01:26:21.833Z,15.70
2018-06-29T01:29:19.673Z,15.60
2018-06-29T01:32:17.604Z,15.50
2018-06-29T01:35:15.435Z,15.40
2018-06-29T01:38:13.284Z,15.30
2018-06-29T01:41:11.087Z,15.40
2018-06-29T01:44:08.933Z,15.40
2018-06-29T01:47:06.851Z,15.30
2018-06-29T01:50:04.702Z,15.30
2018-06-29T01:53:02.609Z,15.20
2018-06-29T01:56:00.583Z,15.20
2018-06-29T01:58:58.921Z,15.20
2018-06-29T02:01:56.972Z,15.30
2018-06-29T02:04:55.123Z,15.30
2018-06-29T02:07:52.890Z,15.20
2018-06-29T02:10:50.707Z,14.80
2018-06-29T02:13:48.591Z,14.70
2018-06-29T02:16:46.304Z,14.70
2018-06-29T02:19:44.483Z,14.80
2018-06-29T02:22:42.858Z,14.90
2018-06-29T02:25:41.106Z,14.90
2018-06-29T02:28:39.226Z,15.00
2018-06-29T02:31:37.097Z,15.10
2018-06-29T02:34:34.986Z,15.00
2018-06-29T02:37:33.031Z,15.00
2018-06-29T02:40:31.185Z,15.00
2018-06-29T02:43:29.008Z,15.00
2018-06-29T02:46:27.321Z,14.90
2018-06-29T02:49:24.904Z,14.80
2018-06-29T02:52:22.519Z,14.80
2018-06-29T02:55:20.302Z,14.70
2018-06-29T02:58:17.944Z,14.80
2018-06-29T03:01:15.646Z,14.70
2018-06-29T03:04:13.521Z,14.50
2018-06-29T03:07:11.433Z,14.40
2018-06-29T03:10:09.783Z,14.30
2018-06-29T03:13:07.663Z,14.40
2018-06-29T03:16:05.853Z,14.30
2018-06-29T03:19:03.895Z,14.10
2018-06-29T03:22:01.714Z,14.30
2018-06-29T03:24:59.862Z,14.50
2018-06-29T03:27:57.616Z,14.80
2018-06-29T03:30:55.421Z,15.40
2018-06-29T03:33:53.241Z,15.90
2018-06-29T03:36:51.139Z,16.40
2018-06-29T03:39:49.069Z,16.70
2018-06-29T03:42:46.809Z,17.20
2018-06-29T03:45:44.900Z,17.40
2018-06-29T03:48:42.789Z,17.80
2018-06-29T03:51:41.172Z,18.20
2018-06-29T03:54:39.136Z,18.40
2018-06-29T03:57:36.882Z,18.70
2018-06-29T04:00:34.755Z,18.90
2018-06-29T04:03:32.664Z,19.20
2018-06-29T04:06:30.682Z,19.40
2018-06-29T04:09:29.706Z,19.80
2018-06-29T04:12:27.836Z,20.20
2018-06-29T04:15:25.827Z,20.20
2018-06-29T04:18:24.297Z,20.40
2018-06-29T04:21:22.590Z,20.60
2018-06-29T04:24:20.367Z,21.00
2018-06-29T04:27:18.053Z,21.30
2018-06-29T04:30:15.753Z,21.80
2018-06-29T04:33:13.786Z,21.90
2018-06-29T04:36:11.885Z,22.10
2018-06-29T04:39:09.590Z,22.20
2018-06-29T04:42:08.034Z,22.50
2018-06-29T04:45:05.908Z,22.70
2018-06-29T04:48:04.019Z,22.80
2018-06-29T04:51:02.006Z,22.60
2018-06-29T04:54:00.260Z,22.80
2018-06-29T04:56:58.050Z,22.90
2018-06-29T04:59:56.170Z,22.90
2018-06-29T05:02:53.981Z,22.90
2018-06-29T05:05:52.137Z,23.00
2018-06-29T05:08:50.148Z,23.50
2018-06-29T05:11:47.972Z,23.60
2018-06-29T05:14:45.683Z,23.70
2018-06-29T05:17:43.663Z,23.70
2018-06-29T05:20:41.806Z,23.70
2018-06-29T05:23:39.813Z,24.10
2018-06-29T05:26:39.269Z,24.30
2018-06-29T05:29:37.046Z,24.50
2018-06-29T05:32:34.923Z,24.60
2018-06-29T05:35:33.084Z,25.00
2018-06-29T05:38:30.922Z,25.30
2018-06-29T05:41:28.888Z,25.50
2018-06-29T05:44:26.672Z,25.60
2018-06-29T05:47:24.639Z,25.90
2018-06-29T05:50:22.499Z,25.90
2018-06-29T05:53:20.179Z,26.80
2018-06-29T05:56:17.811Z,27.20
2018-06-29T05:59:15.630Z,27.10
2018-06-29T06:02:13.738Z,27.30
2018-06-29T06:05:11.443Z,27.70
2018-06-29T06:08:09.458Z,28.30
2018-06-29T06:11:07.307Z,28.60
2018-06-29T06:14:05.289Z,27.80
2018-06-29T06:17:02.965Z,25.40
2018-06-29T06:20:13.771Z,24.60
2018-06-29T06:23:16.659Z,27.50
2018-06-29T06:26:14.709Z,28.80
2018-06-29T06:29:12.331Z,28.70
2018-06-29T06:32:10.050Z,28.80
2018-06-29T06:35:07.862Z,29.00
2018-06-29T06:38:05.744Z,29.50
2018-06-29T06:41:03.903Z,29.80
2018-06-29T06:44:01.961Z,30.30
2018-06-29T06:46:59.946Z,30.00
2018-06-29T06:49:57.790Z,30.40
2018-06-29T06:52:55.973Z,29.60
2018-06-29T06:55:54.131Z,30.10
2018-06-29T06:58:52.042Z,30.70
2018-06-29T07:01:50.316Z,31.30
2018-06-29T07:04:48.268Z,30.80
2018-06-29T07:07:46.146Z,30.80
2018-06-29T07:10:44.162Z,28.30
2018-06-29T07:13:42.116Z,29.80
2018-06-29T07:16:40.174Z,31.10
2018-06-29T07:19:38.037Z,28.90
2018-06-29T07:22:36.207Z,29.30
2018-06-29T07:25:34.344Z,30.10
2018-06-29T07:28:32.111Z,31.60
2018-06-29T07:31:30.057Z,31.60
2018-06-29T07:34:28.151Z,31.90
2018-06-29T07:37:26.951Z,31.20
2018-06-29T07:40:25.091Z,32.50
2018-06-29T07:43:23.376Z,32.80
2018-06-29T07:46:21.017Z,33.10
2018-06-29T07:49:18.862Z,32.50
2018-06-29T07:52:16.598Z,32.00
2018-06-29T07:55:14.499Z,33.00
2018-06-29T07:58:12.587Z,33.80
2018-06-29T08:01:11.450Z,33.20
2018-06-29T08:04:09.396Z,34.50
2018-06-29T08:07:07.826Z,34.20
2018-06-29T08:10:05.968Z,31.70
2018-06-29T08:13:04.190Z,31.40
2018-06-29T08:16:02.944Z,29.80
2018-06-29T08:19:00.790Z,32.80
2018-06-29T08:21:59.039Z,32.20
2018-06-29T08:25:02.890Z,33.50
2018-06-29T08:28:00.822Z,33.90
2018-06-29T08:30:58.554Z,32.70
2018-06-29T08:33:56.519Z,34.30
2018-06-29T08:36:54.346Z,32.70
2018-06-29T08:39:52.330Z,33.30
2018-06-29T08:42:50.380Z,31.70
2018-06-29T08:45:48.674Z,33.20
2018-06-29T08:48:46.705Z,33.00
2018-06-29T08:51:44.637Z,31.40
2018-06-29T08:54:42.742Z,32.00
2018-06-29T08:57:40.777Z,33.30
2018-06-29T09:00:38.664Z,33.80
2018-06-29T09:03:36.763Z,30.00
2018-06-29T09:06:35.093Z,31.30
2018-06-29T09:09:33.034Z,33.50
2018-06-29T09:12:31.011Z,34.20
2018-06-29T09:15:28.853Z,33.50
2018-06-29T09:18:26.587Z,33.40
2018-06-29T09:21:24.622Z,34.00
2018-06-29T09:24:22.838Z,33.60
2018-06-29T09:27:20.879Z,32.30
2018-06-29T09:30:19.062Z,32.50
2018-06-29T09:33:16.683Z,33.20
2018-06-29T09:36:14.478Z,33.60
2018-06-29T09:39:13.121Z,34.30
2018-06-29T09:42:10.814Z,33.90
2018-06-29T09:45:08.545Z,30.90
2018-06-29T09:48:06.628Z,32.70
2018-06-29T09:51:04.551Z,32.40
2018-06-29T09:54:02.625Z,31.00
2018-06-29T09:57:00.306Z,30.20
2018-06-29T09:59:58.295Z,31.80
2018-06-29T10:02:56.191Z,29.40
2018-06-29T10:05:54.289Z,32.20
2018-06-29T10:08:52.219Z,33.10
2018-06-29T10:11:50.266Z,33.70
2018-06-29T10:14:54.960Z,31.30
2018-06-29T10:17:52.855Z,34.30
2018-06-29T10:20:50.692Z,30.70
2018-06-29T10:23:48.649Z,29.20
2018-06-29T10:26:46.434Z,28.90
2018-06-29T10:29:44.086Z,30.80
2018-06-29T10:32:41.882Z,32.10
2018-06-29T10:35:39.546Z,33.70
2018-06-29T10:38:37.349Z,32.20
2018-06-29T10:41:35.256Z,33.10
2018-06-29T10:44:33.273Z,31.00
2018-06-29T10:47:31.036Z,33.20
2018-06-29T10:50:29.265Z,33.80
2018-06-29T10:53:27.514Z,34.20
2018-06-29T10:56:25.591Z,34.10
2018-06-29T10:59:23.431Z,33.30
2018-06-29T11:02:21.256Z,32.30
2018-06-29T11:05:19.194Z,30.90
2018-06-29T11:08:17.142Z,30.60
2018-06-29T11:11:15.081Z,28.80
2018-06-29T11:14:14.009Z,30.60
2018-06-29T11:17:12.071Z,31.30
2018-06-29T11:20:10.147Z,31.40
2018-06-29T11:23:08.224Z,31.80
2018-06-29T11:26:06.390Z,31.70
2018-06-29T11:29:04.862Z,32.20
2018-06-29T11:32:03.246Z,32.40
2018-06-29T11:35:01.114Z,33.10
2018-06-29T11:37:59.274Z,31.70
2018-06-29T11:40:57.078Z,29.20
2018-06-29T11:43:55.197Z,28.60
2018-06-29T11:46:53.263Z,28.30
2018-06-29T11:49:51.490Z,28.50
2018-06-29T12:15:20.074Z,28.10
2018-06-29T12:18:17.994Z,28.30
2018-06-29T12:21:15.910Z,28.10
2018-06-29T12:24:13.883Z,28.50
2018-06-29T12:27:11.834Z,28.80
2018-06-29T12:30:09.819Z,27.70
2018-06-29T12:33:07.686Z,27.40
2018-06-29T12:36:05.850Z,27.60
2018-06-29T12:39:03.896Z,28.00
2018-06-29T12:42:01.873Z,28.10
2018-06-29T12:44:59.616Z,27.60
2018-06-29T12:47:58.609Z,28.10
2018-06-29T12:50:56.371Z,28.40
2018-06-29T12:53:54.462Z,28.60
2018-06-29T12:56:52.281Z,28.50
2018-06-29T12:59:50.269Z,28.30
2018-06-29T13:02:48.485Z,28.00
2018-06-29T13:05:46.950Z,27.90
2018-06-29T13:08:45.523Z,27.70
2018-06-29T13:11:43.237Z,27.90
2018-06-29T13:14:41.074Z,28.30
2018-06-29T13:17:38.942Z,28.20
2018-06-29T13:20:36.733Z,28.00
2018-06-29T13:23:34.506Z,27.60
2018-06-29T13:26:32.408Z,28.10
2018-06-29T13:29:30.141Z,28.00
2018-06-29T13:32:28.247Z,27.60
2018-06-29T13:35:25.983Z,27.60
2018-06-29T13:38:24.130Z,27.30
2018-06-29T13:41:21.863Z,27.50
2018-06-29T13:44:19.972Z,27.40
2018-06-29T13:47:17.778Z,27.40
2018-06-29T13:50:15.541Z,27.60
2018-06-29T13:53:13.940Z,27.70
2018-06-29T13:56:11.814Z,27.70
2018-06-29T13:59:09.606Z,27.70
2018-06-29T14:02:07.463Z,27.50
2018-06-29T14:05:05.227Z,27.90
2018-06-29T14:08:03.624Z,28.10
2018-06-29T14:11:01.722Z,28.20
2018-06-29T14:13:59.452Z,28.10
2018-06-29T14:16:57.050Z,28.00
2018-06-29T14:19:54.909Z,27.80
2018-06-29T14:25:42.903Z,28.60
2018-06-29T14:28:40.956Z,28.60
2018-06-29T14:31:38.734Z,28.40
2018-06-29T14:34:36.943Z,27.90
2018-06-29T14:37:34.959Z,28.00
2018-06-29T14:40:32.762Z,28.10
2018-06-29T14:43:30.692Z,28.40
2018-06-29T14:46:28.607Z,28.10
2018-06-29T14:49:26.658Z,28.20
2018-06-29T14:52:24.623Z,28.20
2018-06-29T14:55:22.556Z,28.50
2018-06-29T14:58:20.632Z,28.60
2018-06-29T15:01:18.633Z,28.30
2018-06-29T15:04:16.393Z,28.20
2018-06-29T15:07:15.209Z,27.70
2018-06-29T15:10:13.134Z,27.90
2018-06-29T15:13:10.981Z,28.20
2018-06-29T15:16:09.130Z,28.50
2018-06-29T15:19:07.195Z,28.60
2018-06-29T15:22:05.133Z,28.00
2018-06-29T15:25:03.303Z,28.10
2018-06-29T15:28:01.399Z,28.50
2018-06-29T15:30:59.559Z,28.10
2018-06-29T15:33:57.682Z,28.10
2018-06-29T15:36:55.761Z,28.20
2018-06-29T15:39:53.914Z,28.20
2018-06-29T15:42:51.898Z,27.70
2018-06-29T15:45:49.993Z,28.00
2018-06-29T15:48:47.773Z,28.30
2018-06-29T15:51:45.832Z,28.30
2018-06-29T15:54:43.872Z,28.10
2018-06-29T15:57:41.811Z,27.80
2018-06-29T16:00:39.702Z,27.50
2018-06-29T16:03:37.644Z,27.50
2018-06-29T16:06:35.469Z,27.30
2018-06-29T16:09:33.347Z,27.40
2018-06-29T16:12:31.177Z,27.70
2018-06-29T16:15:28.995Z,27.70
2018-06-29T16:18:26.764Z,27.80
2018-06-29T16:21:24.990Z,28.00
2018-06-29T16:24:23.067Z,28.00
2018-06-29T16:27:20.894Z,27.60
2018-06-29T16:30:19.898Z,27.50
2018-06-29T16:33:17.723Z,27.40
2018-06-29T16:36:15.510Z,27.40
2018-06-29T16:39:13.636Z,27.20
2018-06-29T16:42:11.675Z,26.80
2018-06-29T16:45:09.730Z,26.90
2018-06-29T16:48:07.765Z,26.70
2018-06-29T16:51:06.108Z,26.50
2018-06-29T16:54:04.219Z,26.50
2018-06-29T16:57:02.307Z,26.70
2018-06-29T17:00:00.521Z,26.30
2018-06-29T17:02:58.417Z,26.40
2018-06-29T17:05:56.268Z,26.40
2018-06-29T17:08:55.194Z,26.40
2018-06-29T17:11:52.813Z,26.40
2018-06-29T17:14:50.556Z,26.00
2018-06-29T17:17:48.435Z,26.00
2018-06-29T17:20:46.228Z,26.10
2018-06-29T17:23:44.999Z,25.80
2018-06-29T17:26:42.588Z,25.70
2018-06-29T17:29:40.229Z,25.60
2018-06-29T17:32:38.182Z,25.80
2018-06-29T17:35:36.404Z,25.90
2018-06-29T17:38:34.598Z,25.80
2018-06-29T17:41:32.653Z,25.60
2018-06-29T17:44:30.483Z,25.50
2018-06-29T17:47:29.553Z,25.30
2018-06-29T17:50:27.338Z,25.20
2018-06-29T17:53:25.099Z,25.20
2018-06-29T17:56:22.980Z,25.30
2018-06-29T17:59:20.809Z,25.30
2018-06-29T18:02:18.840Z,25.20
2018-06-29T18:05:16.788Z,25.30
2018-06-29T18:08:14.833Z,25.30
2018-06-29T18:11:12.810Z,25.20
2018-06-29T18:14:10.908Z,25.00
2018-06-29T18:17:09.022Z,24.90
2018-06-29T18:20:06.971Z,24.90
2018-06-29T18:23:05.066Z,24.90
2018-06-29T18:26:02.915Z,24.80
2018-06-29T18:29:00.769Z,24.70
2018-06-29T18:31:58.798Z,24.60
2018-06-29T18:34:56.861Z,24.60
2018-06-29T18:37:54.734Z,24.70
2018-06-29T18:40:52.948Z,24.60
2018-06-29T18:43:50.682Z,24.50
2018-06-29T18:46:49.507Z,24.50
2018-06-29T18:49:47.943Z,24.50
2018-06-29T18:52:46.016Z,24.40
2018-06-29T18:55:43.891Z,24.30
2018-06-29T18:58:41.571Z,24.20
2018-06-29T19:01:40.501Z,24.10
2018-06-29T19:04:38.258Z,24.00
2018-06-29T19:07:36.246Z,24.00
2018-06-29T19:10:34.155Z,23.80
2018-06-29T19:13:32.196Z,23.80
2018-06-29T19:16:30.222Z,23.70
2018-06-29T19:19:28.464Z,23.60
2018-06-29T19:22:26.460Z,23.60
2018-06-29T19:25:24.330Z,23.50
2018-06-29T19:28:22.395Z,23.40
2018-06-29T19:31:20.284Z,23.40
2018-06-29T19:34:17.894Z,23.30
2018-06-29T19:37:15.852Z,23.20
2018-06-29T19:40:13.702Z,23.10
2018-06-29T19:43:11.597Z,23.00
2018-06-29T19:46:09.496Z,23.00
2018-06-29T19:49:07.955Z,22.90
2018-06-29T19:52:05.876Z,22.80
2018-06-29T19:55:03.695Z,22.70
2018-06-29T19:58:01.637Z,22.70
2018-06-29T20:00:59.922Z,22.60
2018-06-29T20:03:57.990Z,22.40
2018-06-29T20:06:55.944Z,22.30
2018-06-29T20:09:53.641Z,22.20
2018-06-29T20:12:51.632Z,22.00
2018-06-29T20:15:49.443Z,21.90
2018-06-29T20:18:47.926Z,21.80
2018-06-29T20:21:47.563Z,21.70
2018-06-29T20:24:46.216Z,21.70
2018-06-29T20:27:45.090Z,21.60
2018-06-29T20:30:42.658Z,21.60
2018-06-29T20:33:40.902Z,21.40
2018-06-29T20:36:39.945Z,21.30
2018-06-29T20:39:37.605Z,21.30
2018-06-29T20:42:35.451Z,21.20
2018-06-29T20:45:33.768Z,21.10
2018-06-29T20:48:31.669Z,21.00
2018-06-29T20:51:29.668Z,21.00
2018-06-29T20:54:27.546Z,21.00
2018-06-29T20:57:25.498Z,20.90
2018-06-29T21:00:23.346Z,20.90
2018-06-29T21:03:21.346Z,20.80
2018-06-29T21:06:19.063Z,20.70
2018-06-29T21:09:18.506Z,20.30
2018-06-29T21:12:16.533Z,20.00
2018-06-29T21:15:14.258Z,19.90
2018-06-29T21:18:12.130Z,19.80
2018-06-29T21:21:09.938Z,19.90
2018-06-29T21:24:08.335Z,20.20
2018-06-29T21:27:06.475Z,20.30
2018-06-29T21:30:04.426Z,20.30
2018-06-29T21:33:02.517Z,20.20
2018-06-29T21:36:00.591Z,20.00
2018-06-29T21:38:58.317Z,19.90
2018-06-29T21:41:56.143Z,19.80
2018-06-29T21:44:54.185Z,19.70
2018-06-29T21:47:52.113Z,19.60
2018-06-29T21:50:50.054Z,19.50
2018-06-29T21:53:48.524Z,19.40
2018-06-29T21:56:46.264Z,19.50
2018-06-29T21:59:44.302Z,19.60
2018-06-29T22:02:42.038Z,19.60
2018-06-29T22:05:40.581Z,19.70
2018-06-29T22:08:38.364Z,19.70
2018-06-29T22:11:36.348Z,19.70
2018-06-29T22:14:34.487Z,19.70
2018-06-29T22:17:32.358Z,19.70
2018-06-29T22:20:31.053Z,19.60
2018-06-29T22:23:28.936Z,19.60
2018-06-29T22:26:27.297Z,19.60
2018-06-29T22:29:25.042Z,19.60
2018-06-29T22:32:22.777Z,19.60
2018-06-29T22:35:20.537Z,19.50
2018-06-29T22:38:18.365Z,19.50
2018-06-29T22:41:16.130Z,19.40
2018-06-29T22:44:13.961Z,19.40
2018-06-29T22:47:11.768Z,19.40
2018-06-29T22:50:09.503Z,19.40
2018-06-29T22:53:07.267Z,19.30
2018-06-29T22:56:05.114Z,19.30
2018-06-29T22:59:02.941Z,19.20
2018-06-29T23:02:01.004Z,19.20
2018-06-29T23:04:58.829Z,19.10
2018-06-29T23:07:56.768Z,19.00
2018-06-29T23:10:54.523Z,19.00
2018-06-29T23:13:52.415Z,19.00
2018-06-29T23:16:49.899Z,18.90
2018-06-29T23:19:47.633Z,18.90
2018-06-29T23:22:45.485Z,18.90
2018-06-29T23:25:43.968Z,18.80
2018-06-29T23:28:41.982Z,18.70
2018-06-29T23:31:39.695Z,18.60
2018-06-29T23:34:37.642Z,18.60
2018-06-29T23:37:35.765Z,18.50
2018-06-29T23:40:33.673Z,18.50
2018-06-29T23:43:32.000Z,18.40
2018-06-29T23:46:29.670Z,18.40
2018-06-29T23:49:36.112Z,18.40
2018-06-29T23:52:34.032Z,18.30
2018-06-29T23:55:31.885Z,18.20
2018-06-29T23:58:30.470Z,18.10
